aviador You're here:

KFCS Decoded Metar

FORT CARSON in CO, USA
Report Time2018-07-19 18:56:00
UTC Time2018-07-19 19:19:43
Flight Rules vfr VFR
Wind080° at 08 kt
W.Decomp.*RWY 04: 7.1 kt HW 3.8 kt RCW
RWY 13: 3.8 kt HW 7.1 kt LCW
W.Rank080° ranks 33
Current wind is above 080° avg. (6.0)
Visibility9999 m
Phenomena:N/A
Clouds:N/A
Expected CloudBase > 14,000 ft AGL from Temp-Dew spread
CeilingNone
Temp34°C (ISA +31)
Dew Point-1°C (11% RH)
Heat Index31.5°C
AAT29.0°C
QNH1022 hPa
Density Alt9,072 ft
Elevation5,869 ft
Report Wrong Elevation
Raw Report
KFCS 191856Z AUTO 08008KT 10SM CLR 34/M01 A3017 RMK AO2 SLP137
T03381008 $=

Extra information for KFCS:More info

Metar Taf Metar & Taf Last 4 Metars F.Rules Stats Wind Profile Meteogram Temp Stats Airport Information Weather charts Add Link Nearby VenuesMetar ALERT Operation Metar Decoded Social comments

AIRNAV info for KFCS